createdAt,value
2023-03-29T00:02:31.223Z,4.10
2023-03-29T00:05:02.122Z,4.20
2023-03-29T00:07:33.469Z,4.20
2023-03-29T00:10:01.397Z,4.20
2023-03-29T00:12:28.636Z,4.20
2023-03-29T00:14:55.409Z,4.20
2023-03-29T00:17:22.234Z,4.10
2023-03-29T00:19:49.292Z,4.10
2023-03-29T00:22:16.533Z,4.10
2023-03-29T00:24:43.218Z,4.10
2023-03-29T00:27:09.974Z,4.10
2023-03-29T00:29:36.942Z,4.00
2023-03-29T00:32:03.896Z,4.00
2023-03-29T00:34:36.002Z,4.00
2023-03-29T00:37:04.164Z,4.10
2023-03-29T00:39:31.418Z,4.00
2023-03-29T00:41:58.125Z,4.10
2023-03-29T00:44:52.848Z,4.10
2023-03-29T00:47:26.078Z,4.10
2023-03-29T00:49:54.444Z,4.10
2023-03-29T00:52:22.740Z,4.10
2023-03-29T00:54:53.919Z,4.10
2023-03-29T00:57:22.319Z,4.10
2023-03-29T00:59:51.910Z,4.00
2023-03-29T01:02:22.774Z,4.10
2023-03-29T01:04:59.253Z,4.10
2023-03-29T01:07:36.172Z,4.00
2023-03-29T01:10:14.502Z,4.00
2023-03-29T01:12:48.698Z,4.00
2023-03-29T01:15:20.264Z,4.00
2023-03-29T01:17:50.921Z,4.00
2023-03-29T01:20:22.212Z,4.00
2023-03-29T01:23:07.315Z,4.00
2023-03-29T01:26:03.078Z,4.00
2023-03-29T01:28:34.262Z,4.00
2023-03-29T01:31:09.760Z,4.00
2023-03-29T01:33:41.583Z,4.00
2023-03-29T01:36:27.204Z,4.00
2023-03-29T01:39:06.109Z,4.00
2023-03-29T01:42:08.554Z,4.00
2023-03-29T01:45:04.362Z,4.00
2023-03-29T01:47:37.107Z,4.00
2023-03-29T01:50:13.457Z,4.00
2023-03-29T01:52:51.992Z,4.00
2023-03-29T01:55:26.906Z,4.00
2023-03-29T01:57:55.640Z,4.00
2023-03-29T02:00:27.628Z,4.00
2023-03-29T02:03:00.421Z,4.00
2023-03-29T02:05:30.645Z,4.00
2023-03-29T02:08:00.368Z,4.00
2023-03-29T02:10:28.203Z,4.00
2023-03-29T02:12:55.381Z,4.00
2023-03-29T02:15:23.601Z,3.90
2023-03-29T02:17:51.125Z,3.90
2023-03-29T02:20:26.130Z,4.00
2023-03-29T02:23:02.430Z,4.00
2023-03-29T02:25:29.597Z,4.00
2023-03-29T02:27:56.673Z,4.00
2023-03-29T02:30:28.189Z,4.00
2023-03-29T02:33:02.080Z,4.00
2023-03-29T02:35:38.500Z,4.00
2023-03-29T02:38:10.506Z,4.00
2023-03-29T02:40:39.245Z,3.90
2023-03-29T02:43:07.311Z,4.00
2023-03-29T02:45:36.521Z,4.00
2023-03-29T02:48:09.731Z,3.90
2023-03-29T02:50:39.273Z,3.90
2023-03-29T02:53:15.770Z,3.80
2023-03-29T02:55:42.528Z,3.80
2023-03-29T02:58:09.307Z,3.80
2023-03-29T03:00:44.857Z,3.80
2023-03-29T03:03:12.413Z,3.80
2023-03-29T03:05:39.289Z,3.80
2023-03-29T03:08:07.458Z,3.80
2023-03-29T03:10:35.517Z,3.80
2023-03-29T03:13:05.190Z,3.80
2023-03-29T03:15:35.613Z,3.80
2023-03-29T03:18:03.728Z,3.80
2023-03-29T03:20:31.240Z,3.80
2023-03-29T03:22:58.548Z,3.70
2023-03-29T03:25:25.433Z,3.70
2023-03-29T03:27:52.158Z,3.80
2023-03-29T03:30:19.100Z,3.70
2023-03-29T03:32:45.780Z,3.70
2023-03-29T03:35:12.790Z,3.70
2023-03-29T03:37:40.194Z,3.70
2023-03-29T03:40:11.909Z,3.70
2023-03-29T03:42:39.960Z,3.70
2023-03-29T03:45:08.442Z,3.70
2023-03-29T03:47:37.480Z,3.70
2023-03-29T03:50:06.044Z,3.70
2023-03-29T03:52:32.787Z,3.70
2023-03-29T03:54:59.510Z,3.70
2023-03-29T03:57:26.478Z,3.70
2023-03-29T03:59:53.285Z,3.70
2023-03-29T04:02:20.666Z,3.70
2023-03-29T04:04:47.700Z,3.80
2023-03-29T04:07:14.667Z,3.80
2023-03-29T04:09:41.340Z,3.80
2023-03-29T04:12:09.289Z,3.80
2023-03-29T04:14:35.981Z,3.80
2023-03-29T04:17:02.647Z,3.80
2023-03-29T04:19:29.357Z,3.80
2023-03-29T04:21:56.350Z,3.80
2023-03-29T04:24:23.692Z,3.80
2023-03-29T04:26:50.411Z,3.80
2023-03-29T04:29:17.163Z,3.80
2023-03-29T04:31:44.076Z,3.80
2023-03-29T04:34:11.003Z,3.80
2023-03-29T04:36:38.831Z,3.80
2023-03-29T04:39:09.225Z,3.80
2023-03-29T04:41:35.975Z,3.80
2023-03-29T04:44:02.722Z,3.80
2023-03-29T04:46:30.122Z,3.90
2023-03-29T04:48:57.440Z,3.90
2023-03-29T04:51:24.482Z,3.90
2023-03-29T04:53:51.394Z,4.00
2023-03-29T04:56:18.280Z,4.00
2023-03-29T04:58:45.380Z,4.00
2023-03-29T05:01:12.062Z,4.00
2023-03-29T05:03:38.894Z,4.00
2023-03-29T05:06:07.597Z,4.10
2023-03-29T05:08:38.932Z,4.10
2023-03-29T05:11:10.292Z,4.10
2023-03-29T05:13:38.040Z,4.10
2023-03-29T05:16:05.113Z,4.10
2023-03-29T05:18:32.264Z,4.10
2023-03-29T05:20:59.595Z,4.20
2023-03-29T05:23:27.486Z,4.20
2023-03-29T05:25:54.592Z,4.20
2023-03-29T05:28:21.600Z,4.30
2023-03-29T05:30:58.724Z,4.30
2023-03-29T05:33:25.621Z,4.30
2023-03-29T05:36:03.370Z,4.30
2023-03-29T05:38:30.271Z,4.40
2023-03-29T05:40:57.570Z,4.50
2023-03-29T05:43:24.295Z,4.50
2023-03-29T05:45:54.160Z,4.50
2023-03-29T05:48:22.379Z,4.60
2023-03-29T05:50:50.632Z,4.70
2023-03-29T05:53:18.321Z,4.70
2023-03-29T05:55:45.385Z,4.70
2023-03-29T05:58:13.028Z,4.80
2023-03-29T06:00:40.716Z,4.80
2023-03-29T06:03:20.807Z,4.90
2023-03-29T06:05:55.047Z,5.00
2023-03-29T06:08:22.314Z,5.00
2023-03-29T06:10:50.269Z,5.10
2023-03-29T06:13:17.398Z,5.20
2023-03-29T06:15:45.158Z,5.30
2023-03-29T06:18:11.993Z,5.30
2023-03-29T06:20:38.735Z,5.40
2023-03-29T06:23:05.434Z,5.50
2023-03-29T06:25:34.937Z,5.50
2023-03-29T06:28:01.616Z,5.50
2023-03-29T06:30:28.769Z,5.50
2023-03-29T06:32:55.836Z,5.60
2023-03-29T06:35:22.553Z,5.70
2023-03-29T06:37:53.694Z,5.70
2023-03-29T06:40:24.929Z,5.70
2023-03-29T06:42:57.729Z,5.70
2023-03-29T06:45:27.500Z,5.70
2023-03-29T06:47:56.327Z,5.70
2023-03-29T06:50:23.537Z,5.80
2023-03-29T06:52:50.560Z,5.70
2023-03-29T06:55:18.510Z,5.80
2023-03-29T06:57:45.372Z,5.80
2023-03-29T07:00:42.378Z,5.80
2023-03-29T07:03:19.869Z,5.90
2023-03-29T07:05:47.779Z,6.20
2023-03-29T07:08:16.525Z,6.40
2023-03-29T07:10:47.606Z,6.60
2023-03-29T07:13:15.750Z,6.70
2023-03-29T07:15:43.433Z,6.70
2023-03-29T07:18:11.432Z,6.70
2023-03-29T07:20:39.038Z,6.80
2023-03-29T07:23:06.441Z,6.90
2023-03-29T07:25:34.025Z,6.90
2023-03-29T07:28:00.945Z,7.00
2023-03-29T07:30:32.373Z,7.20
2023-03-29T07:32:59.668Z,7.50
2023-03-29T07:35:27.934Z,7.90
2023-03-29T07:37:55.865Z,8.40
2023-03-29T07:40:24.199Z,8.60
2023-03-29T07:42:54.600Z,8.70
2023-03-29T07:45:26.727Z,8.70
2023-03-29T07:47:57.365Z,8.80
2023-03-29T07:50:24.690Z,9.00
2023-03-29T07:52:51.427Z,9.10
2023-03-29T07:55:18.611Z,9.20
2023-03-29T07:57:45.399Z,9.20
2023-03-29T08:00:17.049Z,9.20
2023-03-29T08:05:13.902Z,9.40
2023-03-29T08:07:42.494Z,9.50
2023-03-29T08:10:11.514Z,9.60
2023-03-29T08:12:38.322Z,9.70
2023-03-29T08:15:09.282Z,9.60
2023-03-29T08:17:36.876Z,9.40
2023-03-29T08:20:05.955Z,9.50
2023-03-29T08:22:35.815Z,9.60
2023-03-29T08:25:04.295Z,9.60
2023-03-29T08:27:31.182Z,9.70
2023-03-29T08:29:57.862Z,9.90
2023-03-29T08:32:24.784Z,10.00
2023-03-29T08:34:51.546Z,10.00
2023-03-29T08:37:19.142Z,10.10
2023-03-29T08:39:46.026Z,10.20
2023-03-29T08:42:31.563Z,10.40
2023-03-29T08:45:26.680Z,10.40
2023-03-29T08:48:30.055Z,10.50
2023-03-29T08:51:05.197Z,10.90
2023-03-29T08:53:41.467Z,11.50
2023-03-29T08:56:13.731Z,12.10
2023-03-29T08:58:41.933Z,12.60
2023-03-29T09:01:11.393Z,13.00
2023-03-29T09:03:48.043Z,13.30
2023-03-29T09:06:18.839Z,13.60
2023-03-29T09:08:47.665Z,14.00
2023-03-29T09:13:57.662Z,14.80
2023-03-29T09:16:41.104Z,14.70
2023-03-29T09:19:32.545Z,15.50
2023-03-29T09:22:39.262Z,15.80
2023-03-29T09:25:50.749Z,15.70
2023-03-29T09:28:37.155Z,15.10
2023-03-29T09:31:13.011Z,14.90
2023-03-29T09:33:52.371Z,14.80
2023-03-29T09:36:28.428Z,14.40
2023-03-29T09:38:55.751Z,13.90
2023-03-29T09:41:46.607Z,13.80
2023-03-29T09:44:30.096Z,13.80
2023-03-29T09:47:12.595Z,13.80
2023-03-29T09:49:44.214Z,13.40
2023-03-29T09:52:17.091Z,13.20
2023-03-29T09:54:44.374Z,12.90
2023-03-29T09:57:17.595Z,12.80
2023-03-29T09:59:49.013Z,12.40
2023-03-29T10:02:18.766Z,12.60
2023-03-29T10:04:45.520Z,12.50
2023-03-29T10:07:20.912Z,12.30
2023-03-29T10:09:55.149Z,12.10
2023-03-29T10:12:23.422Z,12.00
2023-03-29T10:15:01.457Z,11.90
2023-03-29T10:17:32.764Z,11.90
2023-03-29T10:20:04.339Z,12.00
2023-03-29T10:22:40.241Z,12.10
2023-03-29T10:25:20.304Z,12.70
2023-03-29T10:27:49.003Z,13.40
2023-03-29T10:30:25.278Z,13.80
2023-03-29T10:32:59.110Z,14.10
2023-03-29T10:35:33.705Z,14.30
2023-03-29T10:38:09.787Z,14.40
2023-03-29T10:40:53.848Z,14.50
2023-03-29T10:43:39.313Z,14.50
2023-03-29T10:46:26.296Z,14.70
2023-03-29T10:49:00.158Z,14.80
2023-03-29T10:51:36.124Z,14.90
2023-03-29T10:54:03.662Z,15.10
2023-03-29T10:56:40.915Z,15.40
2023-03-29T10:59:44.919Z,15.70
2023-03-29T11:02:36.264Z,15.90
2023-03-29T11:05:25.748Z,15.80
2023-03-29T11:08:30.424Z,15.70
2023-03-29T11:11:31.860Z,15.30
2023-03-29T11:14:20.543Z,15.40
2023-03-29T11:17:10.320Z,16.20
2023-03-29T11:20:04.946Z,16.30
2023-03-29T11:22:44.705Z,16.00
2023-03-29T11:25:34.932Z,16.00
2023-03-29T11:28:28.629Z,16.00
2023-03-29T11:30:58.395Z,16.10
2023-03-29T11:33:52.076Z,15.90
2023-03-29T11:36:31.985Z,15.70
2023-03-29T11:39:44.270Z,15.40
2023-03-29T11:42:23.067Z,15.10
2023-03-29T11:44:54.940Z,15.20
2023-03-29T11:47:44.410Z,15.50
2023-03-29T11:50:43.179Z,16.10
2023-03-29T11:53:20.371Z,16.90
2023-03-29T11:55:48.230Z,17.50
2023-03-29T11:58:27.059Z,17.70
2023-03-29T12:01:10.162Z,17.60
2023-03-29T12:03:49.222Z,18.20
2023-03-29T12:06:31.905Z,18.60
2023-03-29T12:09:06.159Z,18.30
2023-03-29T12:12:03.290Z,18.80
2023-03-29T12:14:45.607Z,19.40
2023-03-29T12:17:22.131Z,18.90
2023-03-29T12:20:02.756Z,18.70
2023-03-29T12:22:33.783Z,18.30
2023-03-29T12:25:03.341Z,18.20
2023-03-29T12:27:44.636Z,17.80
2023-03-29T12:30:34.228Z,17.20
2023-03-29T12:33:55.716Z,17.10
2023-03-29T12:36:48.282Z,16.90
2023-03-29T12:39:20.946Z,16.70
2023-03-29T12:41:53.859Z,16.80
2023-03-29T12:44:24.648Z,16.60
2023-03-29T12:46:58.178Z,16.60
2023-03-29T12:49:37.601Z,16.40
2023-03-29T12:52:19.188Z,16.40
2023-03-29T12:54:54.868Z,16.30
2023-03-29T12:57:28.386Z,16.10
2023-03-29T13:00:07.740Z,16.30
2023-03-29T13:02:37.289Z,16.40
2023-03-29T13:05:05.608Z,16.30
2023-03-29T13:07:46.082Z,16.10
2023-03-29T13:10:43.106Z,16.00
2023-03-29T13:15:53.714Z,15.60
2023-03-29T13:18:33.956Z,15.30
2023-03-29T13:21:11.670Z,15.50
2023-03-29T13:23:55.974Z,15.60
2023-03-29T13:26:42.753Z,15.90
2023-03-29T13:29:38.124Z,16.20
2023-03-29T13:32:25.574Z,16.40
2023-03-29T13:35:16.243Z,16.60
2023-03-29T13:37:54.881Z,16.40
2023-03-29T13:40:40.728Z,16.30
2023-03-29T13:43:49.583Z,16.30
2023-03-29T13:46:33.120Z,16.20
2023-03-29T13:49:11.932Z,15.90
2023-03-29T13:51:59.145Z,15.60
2023-03-29T13:54:39.129Z,15.50
2023-03-29T13:57:18.098Z,15.30
2023-03-29T14:00:00.373Z,15.40
2023-03-29T14:02:51.616Z,15.20
2023-03-29T14:05:27.269Z,15.30
2023-03-29T14:07:55.707Z,15.20
2023-03-29T14:10:34.097Z,15.20
2023-03-29T14:13:03.990Z,15.40
2023-03-29T14:16:02.890Z,15.50
2023-03-29T14:18:37.823Z,15.70
2023-03-29T14:21:05.490Z,15.90
2023-03-29T14:23:34.396Z,15.90
2023-03-29T14:26:19.426Z,15.70
2023-03-29T14:28:47.293Z,15.70
2023-03-29T14:31:26.167Z,15.50
2023-03-29T14:33:57.669Z,15.40
2023-03-29T14:36:26.410Z,15.30
2023-03-29T14:39:04.317Z,15.30
2023-03-29T14:41:36.769Z,15.60
2023-03-29T14:44:07.048Z,16.00
2023-03-29T14:46:35.179Z,16.30
2023-03-29T14:49:02.885Z,16.70
2023-03-29T14:51:31.205Z,17.00
2023-03-29T14:54:00.419Z,17.10
2023-03-29T14:56:28.213Z,17.00
2023-03-29T14:58:56.775Z,17.10
2023-03-29T15:01:26.475Z,17.20
2023-03-29T15:04:02.547Z,17.00
2023-03-29T15:06:33.023Z,16.80
2023-03-29T15:09:04.990Z,16.50
2023-03-29T15:11:34.038Z,16.00
2023-03-29T15:14:12.617Z,15.70
2023-03-29T15:16:42.180Z,15.20
2023-03-29T15:19:17.553Z,14.90
2023-03-29T15:22:11.463Z,14.70
2023-03-29T15:24:47.468Z,14.80
2023-03-29T15:27:19.810Z,14.90
2023-03-29T15:29:47.824Z,14.90
2023-03-29T15:32:34.742Z,14.80
2023-03-29T15:35:21.451Z,14.80
2023-03-29T15:37:48.515Z,14.70
2023-03-29T15:40:17.312Z,14.60
2023-03-29T15:42:44.396Z,14.60
2023-03-29T15:45:16.989Z,14.50
2023-03-29T15:47:47.330Z,14.50
2023-03-29T15:50:15.698Z,14.50
2023-03-29T15:52:42.817Z,14.50
2023-03-29T15:55:10.601Z,14.40
2023-03-29T15:57:37.732Z,14.40
2023-03-29T16:00:08.132Z,14.40
2023-03-29T16:02:35.649Z,14.40
2023-03-29T16:05:03.231Z,14.40
2023-03-29T16:07:31.138Z,14.40
2023-03-29T16:10:02.343Z,14.30
2023-03-29T16:12:29.086Z,14.30
2023-03-29T16:14:56.335Z,14.20
2023-03-29T16:17:26.335Z,14.10
2023-03-29T16:19:55.671Z,14.10
2023-03-29T16:22:23.238Z,14.10
2023-03-29T16:24:50.214Z,14.00
2023-03-29T16:27:20.766Z,14.00
2023-03-29T16:29:59.934Z,13.90
2023-03-29T16:32:27.011Z,13.90
2023-03-29T16:34:58.418Z,13.80
2023-03-29T16:37:28.469Z,13.70
2023-03-29T16:39:56.181Z,13.70
2023-03-29T16:42:23.000Z,13.60
2023-03-29T16:44:50.386Z,13.60
2023-03-29T16:47:20.339Z,13.50
2023-03-29T16:49:53.173Z,13.50
2023-03-29T16:52:20.763Z,13.40
2023-03-29T16:54:48.345Z,13.30
2023-03-29T16:57:15.149Z,13.20
2023-03-29T16:59:47.730Z,13.10
2023-03-29T17:02:14.889Z,13.00
2023-03-29T17:04:45.472Z,12.90
2023-03-29T17:07:15.909Z,12.90
2023-03-29T17:09:43.178Z,12.80
2023-03-29T17:12:10.495Z,12.80
2023-03-29T17:14:38.824Z,12.70
2023-03-29T17:17:06.769Z,12.70
2023-03-29T17:19:34.680Z,12.70
2023-03-29T17:22:01.525Z,12.60
2023-03-29T17:24:28.344Z,12.60
2023-03-29T17:26:56.126Z,12.60
2023-03-29T17:29:35.296Z,12.50
2023-03-29T17:32:02.117Z,12.40
2023-03-29T17:34:34.855Z,12.30
2023-03-29T17:37:05.185Z,12.20
2023-03-29T17:39:37.678Z,12.10
2023-03-29T17:42:05.771Z,12.10
2023-03-29T17:44:33.526Z,12.00
2023-03-29T17:47:01.146Z,11.90
2023-03-29T17:49:28.328Z,11.80
2023-03-29T17:51:55.405Z,11.70
2023-03-29T17:54:22.428Z,11.70
2023-03-29T17:56:50.560Z,11.70
2023-03-29T17:59:18.724Z,11.60
2023-03-29T18:01:45.862Z,11.60
2023-03-29T18:04:12.969Z,11.60
2023-03-29T18:06:39.701Z,11.60
2023-03-29T18:09:10.514Z,11.60
2023-03-29T18:11:38.498Z,11.50
2023-03-29T18:14:05.524Z,11.50
2023-03-29T18:16:32.562Z,11.50
2023-03-29T18:18:59.614Z,11.50
2023-03-29T18:21:27.787Z,11.50
2023-03-29T18:23:56.845Z,11.50
2023-03-29T18:26:25.118Z,11.40
2023-03-29T18:28:52.538Z,11.40
2023-03-29T18:31:19.962Z,11.40
2023-03-29T18:33:47.625Z,11.40
2023-03-29T18:36:17.396Z,11.30
2023-03-29T18:38:44.324Z,11.30
2023-03-29T18:41:12.966Z,11.30
2023-03-29T18:43:43.002Z,11.20
2023-03-29T18:46:11.388Z,11.10
2023-03-29T18:48:42.178Z,11.20
2023-03-29T18:51:19.145Z,11.10
2023-03-29T18:53:51.267Z,11.10
2023-03-29T18:56:19.619Z,11.10
2023-03-29T18:58:52.452Z,11.10
2023-03-29T19:01:22.310Z,11.10
2023-03-29T19:03:53.004Z,11.10
2023-03-29T19:06:20.889Z,11.10
2023-03-29T19:08:47.760Z,11.10
2023-03-29T19:11:14.952Z,11.10
2023-03-29T19:13:45.199Z,11.10
2023-03-29T19:16:12.912Z,11.10
2023-03-29T19:18:43.568Z,11.10
2023-03-29T19:21:10.780Z,11.10
2023-03-29T19:23:37.778Z,11.20
2023-03-29T19:26:06.706Z,11.10
2023-03-29T19:28:34.449Z,11.10
2023-03-29T19:31:02.755Z,11.20
2023-03-29T19:33:30.230Z,11.10
2023-03-29T19:36:00.253Z,11.10
2023-03-29T19:38:33.937Z,11.10
2023-03-29T19:41:01.399Z,11.10
2023-03-29T19:43:31.892Z,11.10
2023-03-29T19:46:14.583Z,11.10
2023-03-29T19:48:41.807Z,11.10
2023-03-29T19:51:08.884Z,11.00
2023-03-29T19:53:38.387Z,11.00
2023-03-29T19:56:07.896Z,11.00
2023-03-29T19:58:34.825Z,10.90
2023-03-29T20:01:01.898Z,10.80
2023-03-29T20:03:29.006Z,10.80
2023-03-29T20:05:56.631Z,10.80
2023-03-29T20:08:24.826Z,10.80
2023-03-29T20:10:59.062Z,10.70
2023-03-29T20:13:42.634Z,10.70
2023-03-29T20:16:12.189Z,10.70
2023-03-29T20:18:39.511Z,10.70
2023-03-29T20:21:08.349Z,10.60
2023-03-29T20:23:35.577Z,10.60
2023-03-29T20:26:03.202Z,10.60
2023-03-29T20:28:30.393Z,10.60
2023-03-29T20:30:57.163Z,10.50
2023-03-29T20:33:24.172Z,10.50
2023-03-29T20:35:53.749Z,10.50
2023-03-29T20:38:21.548Z,10.50
2023-03-29T20:40:51.241Z,10.50
2023-03-29T20:43:20.730Z,10.50
2023-03-29T20:45:53.835Z,10.50
2023-03-29T20:48:31.312Z,10.50
2023-03-29T20:50:58.372Z,10.40
2023-03-29T20:53:30.424Z,10.40
2023-03-29T20:56:00.247Z,10.40
2023-03-29T20:58:29.522Z,10.40
2023-03-29T21:01:01.040Z,10.40
2023-03-29T21:03:28.102Z,10.40
2023-03-29T21:05:55.706Z,10.40
2023-03-29T21:08:29.785Z,10.50
2023-03-29T21:10:56.963Z,10.40
2023-03-29T21:13:24.205Z,10.40
2023-03-29T21:15:51.409Z,10.40
2023-03-29T21:18:18.423Z,10.40
2023-03-29T21:20:51.151Z,10.30
2023-03-29T21:23:17.862Z,10.30
2023-03-29T21:25:44.634Z,10.20
2023-03-29T21:28:14.165Z,10.20
2023-03-29T21:30:41.320Z,10.20
2023-03-29T21:33:08.698Z,10.10
2023-03-29T21:35:40.740Z,10.10
2023-03-29T21:38:10.796Z,10.10
2023-03-29T21:40:41.409Z,10.00
2023-03-29T21:43:11.812Z,9.90
2023-03-29T21:45:38.624Z,9.90
2023-03-29T21:48:05.810Z,9.90
2023-03-29T21:50:33.949Z,9.80
2023-03-29T21:53:01.948Z,9.70
2023-03-29T21:55:28.985Z,9.70
2023-03-29T21:57:55.918Z,9.70
2023-03-29T22:00:22.667Z,9.70
2023-03-29T22:02:49.877Z,9.70
2023-03-29T22:05:17.804Z,9.70
2023-03-29T22:07:44.598Z,9.70
2023-03-29T22:10:12.597Z,9.70
2023-03-29T22:12:39.786Z,9.60
2023-03-29T22:15:08.677Z,9.60
2023-03-29T22:17:47.264Z,9.60
2023-03-29T22:20:20.317Z,9.50
2023-03-29T22:22:51.901Z,9.50
2023-03-29T22:25:19.628Z,9.40
2023-03-29T22:27:47.915Z,9.40
2023-03-29T22:30:16.190Z,9.40
2023-03-29T22:32:42.994Z,9.40
2023-03-29T22:35:10.260Z,9.40
2023-03-29T22:37:42.002Z,9.40
2023-03-29T22:40:10.704Z,9.40
2023-03-29T22:42:37.805Z,9.40
2023-03-29T22:45:06.429Z,9.40
2023-03-29T22:47:33.428Z,9.40
2023-03-29T22:50:05.191Z,9.40
2023-03-29T22:52:34.416Z,9.40
2023-03-29T22:55:01.451Z,9.40
2023-03-29T22:57:28.437Z,9.50
2023-03-29T22:59:55.675Z,9.50
2023-03-29T23:02:22.646Z,9.50
2023-03-29T23:04:50.167Z,9.50
2023-03-29T23:07:22.791Z,9.50
2023-03-29T23:09:50.524Z,9.50
2023-03-29T23:12:28.123Z,9.50
2023-03-29T23:15:03.073Z,9.50
2023-03-29T23:17:32.655Z,9.40
2023-03-29T23:20:02.794Z,9.40
2023-03-29T23:22:30.409Z,9.50
2023-03-29T23:24:57.574Z,9.40
2023-03-29T23:27:31.109Z,9.50
2023-03-29T23:30:01.710Z,9.50
2023-03-29T23:32:31.856Z,9.50
2023-03-29T23:35:00.068Z,9.60
2023-03-29T23:37:27.649Z,9.70
2023-03-29T23:39:54.455Z,9.80
2023-03-29T23:42:21.845Z,9.80
2023-03-29T23:44:54.646Z,9.90
2023-03-29T23:47:21.897Z,9.90
2023-03-29T23:49:48.803Z,10.00
2023-03-29T23:52:15.674Z,10.10
2023-03-29T23:54:50.290Z,10.20
2023-03-29T23:57:19.743Z,10.30
2023-03-29T23:59:46.724Z,10.30
